Latest Weather Observations for Parafield

IDS60901

Issued at 10:35 pm CST Saturday 26 July 2014 (issued every 10 minutes, with the page automatically refreshed every 10 minutes)

About weather observations | Map of Adelaide area stations | Latest observations for Adelaide area | Other Formats
Station Details ID: 023013 Name: PARAFIELD AIRPORT Lat: -34.80 Lon: 138.63 Height: 9.5 m
Data from the previous 72 hours. | See also: Recent months at Parafield
Date/Time
CST
Tmp

°C
App
Tmp
°C
Dew
Point
°C
Rel
Hum
%
Delta-T

°C
Wind Press
QNH
hPa
Press
MSL
hPa
Rain
since
9 am
mm
Dir
 
Spd
km/h
Gust
km/h
Spd
kts
Gust
kts
26/10:30pm 7.6 4.3 6.2 91 0.6 NE 13 13 7 7 1026.2 - 0.0
26/10:00pm 7.9 4.6 6.5 91 0.6 NE 13 15 7 8 1026.3 - 0.0
26/09:30pm 7.6 4.3 6.4 92 0.5 NE 13 15 7 8 1026.5 - 0.0
26/09:00pm 8.1 5.7 7.0 93 0.5 NE 9 9 5 5 1026.7 1026.6 0.0
26/08:30pm 7.9 5.4 6.7 92 0.6 NE 9 11 5 6 1026.7 - 0.0
26/08:00pm 8.2 5.9 7.3 94 0.4 NE 9 11 5 6 1026.8 - 0.0
26/07:30pm 8.1 5.7 7.0 93 0.5 ENE 9 13 5 7 1026.8 - 0.0
26/07:00pm 8.3 6.4 6.9 91 0.7 E 6 7 3 4 1026.7 - 0.0
26/06:30pm 9.4 7.2 8.0 91 0.7 E 9 9 5 5 1026.5 - 0.0
26/06:00pm 10.0 9.1 7.8 86 1.0 WNW 2 4 1 2 1026.5 1026.5 0.0
26/05:30pm 11.8 9.8 8.6 81 1.6 WNW 9 11 5 6 1026.4 - 0.0
26/05:00pm 13.5 10.9 9.4 76 2.1 WNW 13 17 7 9 1026.2 - 0.0
26/04:30pm 14.3 11.0 9.5 73 2.5 WNW 17 20 9 11 1026.0 - 0.0
26/04:00pm 14.8 11.2 10.0 73 2.5 WNW 19 22 10 12 1026.1 - 0.0
26/03:30pm 15.4 12.2 10.0 70 2.8 WNW 17 20 9 11 1026.1 - 0.0
26/03:00pm 15.0 11.9 8.9 67 3.1 WNW 15 20 8 11 1026.0 1026.0 0.0
26/02:30pm 15.4 12.4 9.1 66 3.2 W 15 20 8 11 1026.0 - 0.0
26/02:00pm 15.6 12.8 9.9 69 3.0 WNW 15 20 8 11 1026.1 - 0.0
26/01:30pm 16.1 14.9 11.5 74 2.5 NNW 9 17 5 9 1026.3 - 0.0
26/01:00pm 14.9 14.1 10.9 77 2.1 NW 6 11 3 6 1026.9 - 0.0
26/12:55pm 14.7 13.8 10.5 76 2.2 NW 6 7 3 4 1027.0 - 0.0
26/12:30pm 13.5 13.0 10.9 84 1.4 N 4 7 2 4 1027.5 - 0.0
26/12:00pm 11.9 10.3 10.1 89 0.9 N 9 11 5 6 1027.9 1027.8 0.0
26/11:30am 11.4 9.9 10.6 95 0.4 NNW 9 15 5 8 1028.3 - 0.0
26/11:00am 11.2 9.7 10.7 97 0.3 N 9 13 5 7 1028.5 - 0.0
26/10:30am 10.6 9.0 10.3 98 0.2 N 9 11 5 6 1028.6 - 0.0
26/10:11am 10.8 9.3 10.6 99 0.1 N 9 13 5 7 1028.6 - 0.0
26/10:00am 10.5 8.9 10.3 99 0.1 NNW 9 11 5 6 1028.7 - 0.0
26/09:30am 10.3 8.7 10.1 99 0.1 N 9 11 5 6 1028.6 - 0.0
26/09:00am 10.4 8.8 10.2 99 0.1 N 9 11 5 6 1028.3 1028.2 0.2
26/08:30am 10.2 8.5 9.9 98 0.2 N 9 11 5 6 1027.9 - 0.2
26/08:00am 10.3 9.0 10.0 98 0.2 N 7 11 4 6 1027.4 - 0.2
26/07:30am 10.1 8.4 9.8 98 0.2 N 9 11 5 6 1027.1 - 0.2
26/07:28am 10.1 8.4 9.8 98 0.2 N 9 11 5 6 1027.1 - 0.2
26/07:00am 10.0 8.6 9.7 98 0.2 NNE 7 11 4 6 1026.8 - 0.2
26/06:30am 9.8 8.0 9.5 98 0.1 N 9 11 5 6 1026.5 - 0.2
26/06:00am 9.9 7.8 9.6 98 0.1 NNE 11 13 6 7 1026.1 1026.1 0.2
26/05:30am 10.1 8.4 9.8 98 0.2 N 9 11 5 6 1025.8 - 0.2
26/05:00am 10.1 8.4 9.8 98 0.2 N 9 13 5 7 1025.6 - 0.0
26/04:42am 10.1 8.8 9.8 98 0.2 N 7 11 4 6 1025.4 - 0.0
26/04:30am 10.1 8.4 9.8 98 0.2 N 9 11 5 6 1025.3 - 0.0
26/04:00am 10.0 8.3 9.7 98 0.2 N 9 11 5 6 1025.1 - 0.0
26/03:56am 10.0 8.3 9.7 98 0.2 N 9 11 5 6 1025.1 - 0.0
26/03:30am 10.2 8.5 9.9 98 0.2 N 9 11 5 6 1025.1 - 0.0
26/03:24am 10.1 8.4 9.8 98 0.2 N 9 11 5 6 1025.1 - 0.0
26/03:00am 10.2 8.5 9.9 98 0.2 NNE 9 13 5 7 1025.0 1025.0 0.0
26/02:30am 10.0 7.9 9.7 98 0.2 N 11 13 6 7 1024.8 - 0.0
26/02:00am 9.5 7.6 9.2 98 0.1 NNE 9 11 5 6 1024.6 - 0.0
26/01:30am 9.2 7.3 8.9 98 0.1 NNE 9 13 5 7 1024.5 - 0.0
26/01:00am 9.6 7.8 9.3 98 0.1 NNE 9 11 5 6 1024.3 - 0.0
26/12:30am 10.5 8.9 10.2 98 0.2 N 9 11 5 6 1024.6 - 0.0
26/12:00am 10.4 8.7 9.9 97 0.3 NNE 9 11 5 6 1024.4 1024.4 0.0
 
Date/Time
CST
Tmp

°C
App
Tmp
°C
Dew
Point
°C
Rel
Hum
%
Delta-T

°C
Wind Press
QNH
hPa
Press
MSL
hPa
Rain
since
9 am
mm
Dir
 
Spd
km/h
Gust
km/h
Spd
kts
Gust
kts
25/11:41pm 10.0 8.2 9.5 97 0.2 NNE 9 11 5 6 1024.3 - 0.0
25/11:37pm 9.7 7.5 9.2 97 0.2 NNE 11 13 6 7 1024.3 - 0.0
25/11:30pm 9.3 6.9 8.8 97 0.2 NNE 11 13 6 7 1024.2 - 0.0
25/11:00pm 9.1 6.7 8.5 96 0.3 NNE 11 13 6 7 1024.0 - 0.0
25/10:30pm 9.0 6.9 8.4 96 0.3 NNE 9 9 5 5 1023.7 - 0.0
25/10:00pm 9.6 8.0 8.7 94 0.4 N 7 9 4 5 1023.5 - 0.0
25/09:30pm 11.4 10.5 10.5 94 0.5 NW 6 7 3 4 1023.3 - 0.0
25/09:00pm 12.1 11.2 10.7 91 0.7 NW 6 7 3 4 1023.0 1023.0 0.0
25/08:30pm 12.6 11.8 11.2 91 0.7 WNW 6 7 3 4 1022.8 - 0.0
25/08:00pm 12.7 11.8 11.3 91 0.7 WNW 7 9 4 5 1022.6 - 0.0
25/07:30pm 12.9 12.2 11.3 90 0.8 WNW 6 7 3 4 1022.3 - 0.0
25/07:00pm 13.0 11.7 11.4 90 0.8 NW 9 11 5 6 1022.0 - 0.0
25/06:30pm 13.0 12.1 11.2 89 0.9 WNW 7 11 4 6 1021.7 - 0.0
25/06:00pm 13.2 12.3 11.3 88 1.0 WNW 7 9 4 5 1021.2 1021.2 0.0
25/05:30pm 13.5 12.6 11.2 86 1.2 WNW 7 9 4 5 1020.7 - 0.0
25/05:00pm 14.2 13.0 11.7 85 1.3 WNW 9 11 5 6 1020.3 - 0.0
25/04:30pm 14.2 12.9 11.4 83 1.5 WNW 9 15 5 8 1020.1 - 0.0
25/04:00pm 14.8 13.2 11.6 81 1.7 WNW 11 15 6 8 1019.7 - 0.0
25/03:30pm 14.7 12.3 11.5 81 1.7 WNW 15 19 8 10 1019.6 - 0.0
25/03:00pm 15.0 12.3 11.8 81 1.7 NW 17 20 9 11 1019.2 1019.2 0.0
25/02:30pm 15.4 12.3 11.6 78 2.0 WNW 19 24 10 13 1018.9 - 0.0
25/02:00pm 15.8 12.7 12.2 79 2.0 NW 20 26 11 14 1018.7 - 0.0
25/01:40pm 15.7 12.6 12.1 79 2.0 NW 20 28 11 15 1018.8 - 0.0
25/01:30pm 15.5 11.9 11.9 79 2.0 NW 22 26 12 14 1018.8 - 0.0
25/01:00pm 14.7 11.0 11.5 81 1.7 NW 22 28 12 15 1018.9 - 0.0
25/12:30pm 14.6 11.4 11.9 84 1.5 NW 20 28 11 15 1019.1 - 0.0
25/12:00pm 14.1 11.1 12.0 87 1.1 NW 19 26 10 14 1019.4 1019.4 0.0
25/11:30am 13.4 10.3 11.6 89 1.0 NW 19 26 10 14 1019.6 - 0.0
25/11:00am 13.2 11.2 11.6 90 0.9 NNW 13 17 7 9 1019.4 - 0.0
25/10:30am 12.5 10.4 11.2 92 0.7 NNW 13 15 7 8 1019.5 - 0.0
25/10:00am 12.2 10.5 11.1 93 0.6 NNW 11 17 6 9 1019.4 - 0.0
25/09:30am 11.7 9.5 10.8 94 0.5 N 13 17 7 9 1018.9 - 0.0
25/09:00am 11.3 8.6 10.5 95 0.4 N 15 17 8 9 1018.5 1018.5 2.2
25/08:30am 11.6 9.0 10.8 95 0.4 NNW 15 19 8 10 1018.2 - 2.2
25/08:00am 11.7 9.5 10.9 95 0.4 NNW 13 20 7 11 1017.8 - 2.2
25/07:30am 11.5 8.9 10.7 95 0.4 NW 15 20 8 11 1017.2 - 2.2
25/07:00am 11.2 8.1 10.4 95 0.4 NW 17 20 9 11 1016.8 - 2.2
25/06:30am 11.3 7.9 10.4 94 0.5 NW 19 26 10 14 1016.4 - 2.2
25/06:00am 11.3 7.9 10.4 94 0.5 NW 19 28 10 15 1015.9 1015.9 2.2
25/05:30am 11.4 8.4 10.5 94 0.5 NW 17 22 9 12 1015.6 - 2.2
25/05:00am 11.4 8.0 10.5 94 0.5 NW 19 24 10 13 1015.3 - 2.2
25/04:30am 11.5 8.1 10.6 94 0.5 NNW 19 26 10 14 1015.0 - 2.2
25/04:00am 11.5 8.4 10.4 93 0.6 NNW 17 24 9 13 1014.9 - 2.0
25/03:30am 11.4 7.7 10.3 93 0.6 NNW 20 26 11 14 1014.7 - 2.0
25/03:00am 11.5 7.8 10.1 91 0.7 NW 20 32 11 17 1014.5 1014.5 2.0
25/02:30am 11.6 8.1 10.3 92 0.7 NNW 19 26 10 14 1014.3 - 2.0
25/02:00am 11.4 8.3 10.3 93 0.6 NNW 17 22 9 12 1014.1 - 1.8
25/01:36am 11.4 8.2 10.1 92 0.7 NNW 17 24 9 13 1013.9 - 1.8
25/01:30am 11.4 8.2 10.1 92 0.7 NNW 17 22 9 12 1013.9 - 1.6
25/01:00am 11.5 8.1 10.4 93 0.6 NNW 19 26 10 14 1013.6 - 1.6
25/12:57am 11.5 8.1 10.6 94 0.5 NNW 19 26 10 14 1013.5 - 1.6
25/12:51am 11.4 8.4 10.5 94 0.5 NNW 17 26 9 14 1013.5 - 1.6
25/12:30am 11.3 7.8 10.2 93 0.6 NNW 19 26 10 14 1013.5 - 1.2
25/12:19am 11.3 7.7 10.0 92 0.7 NNW 19 24 10 13 1013.4 - 0.6
25/12:17am 11.3 7.7 10.0 92 0.7 NNW 19 24 10 13 1013.4 - 0.4
25/12:00am 11.9 8.4 10.1 89 0.9 N 19 26 10 14 1013.3 1013.3 0.2
 
Date/Time
CST
Tmp

°C
App
Tmp
°C
Dew
Point
°C
Rel
Hum
%
Delta-T

°C
Wind Press
QNH
hPa
Press
MSL
hPa
Rain
since
9 am
mm
Dir
 
Spd
km/h
Gust
km/h
Spd
kts
Gust
kts
24/11:53pm 12.1 8.6 10.3 89 0.9 N 19 24 10 13 1013.4 - 0.2
24/11:30pm 12.6 9.2 10.5 87 1.1 NNW 19 26 10 14 1013.3 - 0.2
24/11:01pm 12.7 9.3 10.6 87 1.1 NW 19 24 10 13 1013.1 - 0.2
24/11:00pm 12.7 9.3 10.6 87 1.1 NW 19 24 10 13 1013.1 - 0.2
24/10:30pm 12.7 9.7 10.6 87 1.1 NNW 17 22 9 12 1012.9 - 0.2
24/10:00pm 12.9 10.0 11.0 88 1.0 NNW 17 22 9 12 1012.8 - 0.2
24/09:30pm 12.8 9.9 11.0 89 0.9 NW 17 24 9 13 1012.6 - 0.2
24/09:00pm 13.0 9.7 10.9 87 1.1 WNW 19 28 10 15 1012.3 1012.3 0.2
24/08:30pm 13.0 9.5 10.9 87 1.1 WNW 20 24 11 13 1012.3 - 0.2
24/08:00pm 13.1 9.3 11.0 87 1.1 WNW 22 30 12 16 1011.9 - 0.2
24/07:30pm 13.4 9.5 10.8 84 1.4 NW 22 30 12 16 1011.4 - 0.2
24/07:00pm 13.4 10.0 10.6 83 1.5 NNW 19 26 10 14 1011.0 - 0.2
24/06:30pm 13.3 9.9 10.7 84 1.4 NNW 19 24 10 13 1010.7 - 0.2
24/06:00pm 13.2 10.6 10.6 84 1.4 NNW 15 20 8 11 1010.3 1010.3 0.2
24/05:30pm 13.0 10.8 10.7 86 1.2 NW 13 19 7 10 1010.1 - 0.2
24/05:00pm 13.7 10.2 11.0 84 1.4 WNW 20 28 11 15 1009.7 - 0.2
24/04:30pm 14.4 11.2 11.9 85 1.3 WNW 20 30 11 16 1009.4 - 0.2
24/04:00pm 14.4 10.3 11.4 82 1.6 WNW 24 35 13 19 1009.0 - 0.2
24/03:34pm 14.7 10.0 12.0 84 1.5 NW 28 41 15 22 1008.6 - 0.2
24/03:30pm 14.5 9.5 12.2 86 1.2 NW 30 41 16 22 1008.6 - 0.2
24/03:20pm 13.7 8.2 11.7 88 1.1 NW 32 50 17 27 1008.5 - 0.2
24/03:16pm 13.9 8.2 11.2 84 1.4 NW 32 50 17 27 1008.4 - 0.0
24/03:00pm 15.0 10.0 11.0 77 2.1 NW 28 43 15 23 1008.1 1008.1 0.0
24/02:30pm 15.0 10.4 11.0 77 2.1 NW 26 33 14 18 1007.8 - 0.0
24/02:00pm 14.3 9.3 11.1 81 1.7 NW 28 35 15 19 1007.7 - 0.0
24/01:30pm 15.0 10.3 10.8 76 2.2 NW 26 35 14 19 1007.7 - 0.0
24/01:11pm 15.6 10.9 10.8 73 2.5 NW 26 37 14 20 1007.8 - 0.0
24/01:00pm 15.4 10.0 11.0 75 2.3 NW 30 39 16 21 1007.8 - 0.0
24/12:42pm 15.1 10.6 11.5 79 1.9 NW 26 37 14 20 1007.8 - 0.0
24/12:30pm 14.7 9.4 11.3 80 1.8 WNW 30 39 16 21 1007.9 - 0.0
24/12:00pm 15.0 10.1 11.4 79 1.9 NW 28 37 15 20 1008.3 1008.3 0.0
24/11:30am 13.7 9.1 11.0 84 1.4 NNW 26 35 14 19 1008.6 - 0.0
24/11:18am 13.7 8.7 11.0 84 1.4 NW 28 39 15 21 1008.6 - 0.0
24/11:00am 13.2 8.9 10.9 86 1.2 NW 24 32 13 17 1008.6 - 0.0
24/10:30am 12.6 7.9 10.5 87 1.1 NW 26 41 14 22 1008.6 - 0.0
24/10:23am 12.6 7.4 10.3 86 1.2 NNW 28 39 15 21 1008.6 - 0.0
24/10:00am 12.4 7.2 10.1 86 1.2 NW 28 37 15 20 1008.3 - 0.0
24/09:30am 12.4 7.3 10.5 88 1.0 NW 28 39 15 21 1007.9 - 0.0
24/09:11am 11.7 7.6 10.1 90 0.8 NW 22 35 12 19 1007.7 - 0.0
24/09:00am 11.5 7.4 10.2 92 0.7 NNW 22 30 12 16 1007.5 1007.5 15.6
24/08:59am 11.5 7.4 10.2 92 0.7 NNW 22 30 12 16 1007.4 - 15.6
24/08:30am 11.2 7.1 10.1 93 0.6 NNW 22 32 12 17 1007.1 - 15.2
24/08:00am 11.3 7.6 10.2 93 0.6 NNW 20 28 11 15 1006.7 - 15.0
24/07:53am 11.3 7.6 10.0 92 0.7 NNW 20 28 11 15 1006.6 - 15.0
24/07:30am 11.3 6.8 10.2 93 0.6 NW 24 33 13 18 1006.3 - 15.0
24/07:00am 11.6 8.1 10.8 95 0.4 NNW 20 28 11 15 1005.7 - 15.0
24/06:42am 11.4 7.8 10.6 95 0.4 N 20 28 11 15 1005.4 - 15.0
24/06:30am 11.2 7.2 10.6 96 0.3 N 22 32 12 17 1005.3 - 15.0
24/06:00am 11.0 6.9 10.1 94 0.5 NNE 22 32 12 17 1005.0 1005.0 14.6
24/05:30am 11.0 7.2 9.9 93 0.6 NNE 20 28 11 15 1005.1 - 14.4
24/05:22am 11.0 6.8 9.9 93 0.6 N 22 28 12 15 1005.1 - 14.4
24/05:16am 10.9 6.7 9.8 93 0.6 N 22 32 12 17 1005.2 - 14.4
24/05:02am 10.8 6.6 9.9 94 0.5 N 22 30 12 16 1005.3 - 14.2
24/05:00am 10.7 6.9 9.8 94 0.5 N 20 30 11 16 1005.3 - 14.2
24/04:58am 10.7 6.9 9.8 94 0.5 N 20 30 11 16 1005.3 - 14.2
24/04:30am 10.3 5.3 9.4 94 0.4 NNE 26 33 14 18 1005.0 - 13.8
24/04:00am 10.3 6.0 9.2 93 0.5 NNE 22 32 12 17 1005.0 - 13.2
24/03:30am 10.6 5.4 8.9 89 0.8 NNE 26 41 14 22 1005.4 - 12.4
24/03:09am 10.7 5.0 8.5 86 1.1 NNE 28 37 15 20 1005.6 - 12.2
24/03:00am 10.9 4.9 8.5 85 1.2 NNE 30 37 16 20 1005.6 1005.6 12.0
24/02:49am 10.6 5.3 8.5 87 1.0 NNE 26 37 14 20 1005.8 - 12.0
24/02:38am 10.7 4.1 8.5 86 1.1 NNE 33 52 18 28 1006.0 - 12.0
24/02:35am 10.8 3.7 8.2 84 1.3 NNE 35 52 19 28 1006.0 - 12.0
24/02:30am 11.1 3.6 8.1 82 1.5 NNE 37 50 20 27 1006.1 - 11.8
24/02:00am 12.4 6.4 6.9 69 2.6 NNE 28 39 15 21 1006.1 - 11.6
24/01:30am 12.7 7.4 6.7 67 2.9 NNE 24 37 13 20 1006.4 - 11.6
24/01:00am 12.1 6.5 7.2 72 2.4 NNE 26 41 14 22 1006.8 - 11.6
24/12:30am 12.3 7.9 7.2 71 2.5 N 20 33 11 18 1007.5 - 11.2
24/12:00am 12.0 6.1 7.3 73 2.3 NE 28 39 15 21 1007.8 1007.8 11.2
 
Date/Time
CST
Tmp

°C
App
Tmp
°C
Dew
Point
°C
Rel
Hum
%
Delta-T

°C
Wind Press
QNH
hPa
Press
MSL
hPa
Rain
since
9 am
mm
Dir
 
Spd
km/h
Gust
km/h
Spd
kts
Gust
kts
23/11:30pm 12.2 6.6 7.1 71 2.5 ENE 26 39 14 21 1008.0 - 11.0
23/11:00pm 12.6 5.2 6.6 67 2.9 NE 35 44 19 24 1008.3 - 10.8

Latest Capital City Observations: Canberra | Sydney | Melbourne | Brisbane | Adelaide | Perth | Hobart | Darwin

Other Formats:

Comma delimited format used in spreadsheet applications
http://www.bom.gov.au/fwo/IDS60901/IDS60901.95677.axf

JavaScript Object Notation format (JSON) in row-major order
http://www.bom.gov.au/fwo/IDS60901/IDS60901.95677.json